Kelmont East, Nevada
Current Conditions -  °F | °C
As of 12:53 AM on Friday 19 Dec 2014 (Local Time) from KTVL Reporting Station
Few Clouds Few Clouds  
Wind Chill: 35°   Ceiling: Unl
Heat Index: 40°   Visibility: 10mi
Dew Point: 11°   Wind: 7mph
Humidity: 31%   Direction: NA
Pressure: 30.13"   Gusts: NA
Location:  39.0164°N, 119.925°W
Report Text: KTVL 190853Z AUTO VRB06KT 10SM FEW050 04/M12 A3013 RMK AO2 SLP184 T00441117 56004
Loading
Personal Weather Stations






























Interactive Weather Map New forecast layout! Learn more

10-Day Weather Forecast

Advertisements
Track Severe Weather on mobile